• Join FlightAware (Why Join?)
  • Login
  • US Flag 
09:11PM EDT


 

Airport Tracker/Info


-or-


 

Live Flight TrackerFlight Track Log ✈ AAL963 ✈ 10-Aug-2013 ✈ KDFW - SBGR / GRU

Flight Track Log - Related Links

Times and Time Zones

All times are in EDT time to prevent confusion due to time zone crossing. See the AAL963 flight status page for this flight to view local times or setup timezone preferences in your user account.

Time Position Orientation Groundspeed Altitude Reporting Facility
EDT Latitude Longitude Course Direction KTS MPH feet Rate Location/Type
09:33PM 32.9360 -97.0520 352° North 196 226 1,800  Level FlightAware
09:33PM 32.9580 -97.0580 347° North 211 243 2,300 1,200 Climbing FlightAware
09:33PM 32.9780 -97.0650 344° North 228 262 2,700 900 Climbing FlightAware
09:34PM 32.9990 -97.0740 340° North 251 289 2,900 1,020 Climbing FlightAware
09:34PM 33.0150 -97.0810 340° North 265 305 3,300 1,860 Climbing FlightAware
09:34PM 33.0240 -97.0880 327° Northwest 267 307 3,600 2,220 Climbing FlightAware
09:34PM 33.0310 -97.0960 316° Northwest 270 311 3,900 1,800 Climbing FlightAware
09:34PM 33.0380 -97.1120 298° West 276 318 4,200 1,500 Climbing FlightAware
09:35PM 33.0410 -97.1230 288° West 280 322 4,400 2,220 Climbing FlightAware
09:35PM 33.0420 -97.1360 275° West 276 318 4,800 2,400 Climbing FlightAware
09:35PM 33.0380 -97.1600 259° West 272 313 5,600 2,280 Climbing FlightAware
09:35PM 33.0340 -97.1710 247° West 280 322 5,800 2,460 Climbing FlightAware
09:35PM 33.0280 -97.1810 234° Southwest 282 325 6,100 2,400 Climbing FlightAware
09:35PM 33.0220 -97.1900 232° Southwest 280 322 6,400 2,400 Climbing FlightAware
09:36PM 33.0020 -97.2110 221° Southwest 278 320 7,200 2,220 Climbing FlightAware
09:36PM 32.9810 -97.2330 221° Southwest 283 326 7,900 2,160 Climbing FlightAware
09:36PM 32.9580 -97.2590 223° Southwest 289 333 8,800 1,920 Climbing FlightAware
09:37PM 32.9460 -97.2700 218° Southwest 294 338 9,100 1,380 Climbing FlightAware
09:37PM 32.9350 -97.2750 201° Southwest 300 345 9,300 1,800 Climbing FlightAware
09:37PM 32.9280 -97.2770 193° South 302 348 9,500 1,920 Climbing FlightAware
09:37PM 32.8780 -97.2810 184° South 310 357 10,600 1,860 Climbing FlightAware
09:38PM 32.8210 -97.2860 184° South 326 375 11,800 1,560 Climbing FlightAware
09:39PM 32.7630 -97.2770 173° South 357 411 12,700 1,260 Climbing FlightAware
09:39PM 32.7470 -97.2630 144° Southeast 366 421 12,900 1,080 Climbing FlightAware
09:40PM 32.7000 -97.2180 141° Southeast 395 455 13,600 1,500 Climbing FlightAware
09:40PM 32.6440 -97.1680 143° Southeast 414 476 14,700 2,040 Climbing FlightAware
09:41PM 32.5880 -97.1440 160° South 420 483 15,900 2,280 Climbing FlightAware
09:41PM 32.5020 -97.1200 167° South 429 494 17,500 2,160 Climbing FlightAware
09:42PM 32.4390 -97.1030 167° South 436 502 18,600 1,800 Climbing FlightAware
09:43PM 32.3670 -97.0830 167° South 446 513 19,600 1,800 Climbing FlightAware
09:43PM 32.3220 -97.0698 166° South 449 517 20,400 1,800 Climbing FlightAware ADS-B
09:44PM 32.2260 -97.0430 167° South 457 526 21,700 1,620 Climbing FlightAware
09:44PM 32.1490 -97.0340 174° South 463 533 22,700 1,560 Climbing FlightAware
09:45PM 32.0888 -97.0337 180° South 470 541 23,400 1,380 Climbing FlightAware ADS-B
09:45PM 32.0020 -97.0350 181° South 476 548 24,300 1,440 Climbing FlightAware
09:46PM 31.9799 -97.0357 182° South 477 549 24,600 1,800 Climbing FlightAware ADS-B
09:46PM 31.9117 -97.0390 182° South 478 550 25,500 1,380 Climbing FlightAware ADS-B
09:47PM 31.8408 -97.0422 182° South 479 551 26,100 1,200 Climbing FlightAware ADS-B
09:47PM 31.7510 -97.0390 178° South 493 567 27,000 1,440 Climbing FlightAware
09:48PM 31.7181 -97.0300 167° South 492 566 27,400 1,680 Climbing FlightAware ADS-B
09:48PM 31.6875 -97.0161 157° South 490 564 27,800 1,260 Climbing FlightAware ADS-B
09:49PM 31.4805 -96.9035 156° South 504 580 29,800 1,260 Climbing FlightAware ADS-B
09:50PM 31.3491 -96.8351 156° South 504 580 31,200 1,320 Climbing FlightAware ADS-B
09:51PM 31.2848 -96.8020 156° South 502 578 31,900 1,320 Climbing FlightAware ADS-B
09:52PM 31.2036 -96.7488 143° Southeast 500 575 32,800 660 Climbing FlightAware ADS-B
09:52PM 31.1322 -96.6394 123° Southeast 491 565 33,000 120 Climbing FlightAware ADS-B
09:53PM 31.0949 -96.5698 122° Southeast 492 566 33,000  Level FlightAware ADS-B
09:54PM 31.0583 -96.5009 122° Southeast 492 566 33,000  Level FlightAware ADS-B
09:54PM 31.0216 -96.4326 122° Southeast 493 567 33,000  Level FlightAware ADS-B
09:55PM 30.9843 -96.3637 122° Southeast 493 567 33,000  Level FlightAware ADS-B
09:55PM 30.9478 -96.2963 122° Southeast 494 568 33,000  Level FlightAware ADS-B
09:57PM 30.8364 -96.0922 123° Southeast 491 565 33,000  Level FlightAware ADS-B
09:57PM 30.7996 -96.0247 122° Southeast 491 565 33,000  Level FlightAware ADS-B
09:58PM 30.7624 -95.9566 122° Southeast 491 565 33,000  Level FlightAware ADS-B
09:58PM 30.7247 -95.8879 123° Southeast 492 566 33,000  Level FlightAware ADS-B
09:59PM 30.6510 -95.7535 123° Southeast 492 566 33,000  Level FlightAware ADS-B
10:00PM 30.5771 -95.6192 123° Southeast 492 566 33,000  Level FlightAware ADS-B
10:01PM 30.5349 -95.5429 123° Southeast 493 567 33,000  Level FlightAware ADS-B
10:01PM 30.4973 -95.4751 123° Southeast 496 571 33,000  Level FlightAware ADS-B
10:03PM 30.3469 -95.2047 123° Southeast 496 571 33,000  Level FlightAware ADS-B
10:04PM 30.3093 -95.1370 123° Southeast 497 572 33,000  Level FlightAware ADS-B
10:04PM 30.2718 -95.0700 123° Southeast 497 572 33,000  Level FlightAware ADS-B
10:05PM 30.2341 -95.0028 123° Southeast 495 570 33,000  Level FlightAware ADS-B
10:05PM 30.1964 -94.9356 123° Southeast 495 570 33,000  Level FlightAware ADS-B
10:06PM 30.1589 -94.8688 123° Southeast 494 568 33,000  Level FlightAware ADS-B
10:08PM 30.0076 -94.6009 123° Southeast 496 571 33,000  Level FlightAware ADS-B
10:08PM 29.9700 -94.5344 123° Southeast 494 568 33,000  Level FlightAware ADS-B
10:09PM 29.9324 -94.4682 123° Southeast 493 567 33,000  Level FlightAware ADS-B
10:09PM 29.8949 -94.4020 123° Southeast 492 566 33,000  Level FlightAware ADS-B
10:10PM 29.8190 -94.2689 123° Southeast 493 567 33,000  Level FlightAware ADS-B
10:11PM 29.7804 -94.2014 123° Southeast 491 565 33,000  Level FlightAware ADS-B
10:11PM 29.7421 -94.1345 123° Southeast 490 564 33,000  Level FlightAware ADS-B
10:12PM 29.7125 -94.0832 124° Southeast 489 563 33,000  Level FlightAware ADS-B
10:12PM 29.6714 -94.0286 134° Southeast 491 565 33,000  Level FlightAware ADS-B
10:12PM 29.6349 -93.9932 140° Southeast 494 568 33,000  Level FlightAware ADS-B
10:13PM 29.5913 -93.9551 143° Southeast 494 568 33,000  Level FlightAware ADS-B
10:15PM 29.4078 -93.8001 144° Southeast 497 572 33,000  Level FlightAware ADS-B
10:15PM 29.3500 -93.7509 143° Southeast 497 572 33,000  Level FlightAware ADS-B
10:16PM 29.2875 -93.6977 143° Southeast 497 572 33,000  Level FlightAware ADS-B
10:18PM 29.0470 -93.4937 143° Southeast 493 567 33,000  Level FlightAware ADS-B
10:18PM 28.9907 -93.4461 144° Southeast 495 570 33,000  Level FlightAware ADS-B
10:19PM 28.9310 -93.3958 144° Southeast 490 564 33,000  Level FlightAware ADS-B
10:20PM 28.8627 -93.3386 144° Southeast 488 562 33,000 -60 Level FlightAware ADS-B
10:21PM 28.7333 -93.2292 144° Southeast 485 558 32,900  Descending Houston Center
10:22PM 28.6244 -93.1378 144° Southeast 486 559 33,000  Climbing Houston Center
10:23PM 28.5158 -93.0475 144° Southeast 485 558 32,900  Descending Houston Center
10:24PM 28.4078 -92.9564 143° Southeast 484 557 33,000  Climbing Houston Center
10:25PM 28.2994 -92.8667 144° Southeast 482 555 33,000 -60 Level Houston Center
10:26PM 28.1897 -92.7767 144° Southeast 486 559 32,900  Descending Houston Center
10:27PM 28.0822 -92.6864 143° Southeast 483 556 33,000  Climbing Houston Center
10:28PM 27.9725 -92.5981 145° Southeast 484 557 32,900  Descending Houston Center
10:29PM 27.8636 -92.5081 144° Southeast 485 558 33,000  Climbing Houston Center
10:30PM 27.7536 -92.4206 145° Southeast 483 556 32,900  Descending Houston Center
10:31PM 27.6453 -92.3319 144° Southeast 482 555 33,000  Climbing Houston Center
10:32PM 27.5367 -92.2417 144° Southeast 484 557 33,000  Level Houston Center
10:33PM 27.4061 -92.1361 144° Southeast 482 555 33,000 -60 Level Houston Center
10:34PM 27.2961 -92.0494 145° Southeast 482 555 32,900  Descending Houston Center
10:36PM 27.1302 -91.9041 144° Southeast  Level FlightAware Approximate
10:43PM 26.3641 -91.2945 144° Southeast  Level FlightAware Approximate
10:44PM 26.2545 -91.2080 145° Southeast  Level FlightAware Approximate
10:45PM 26.1449 -91.1217 145° Southeast  Level FlightAware Approximate
10:46PM 26.0352 -91.0355 145° Southeast  Level FlightAware Approximate
10:47PM 25.9254 -90.9495 145° Southeast  Level FlightAware Approximate
10:48PM 25.8156 -90.8636 145° Southeast  Level FlightAware Approximate
10:49PM 25.7058 -90.7780 145° Southeast  Level FlightAware Approximate
10:50PM 25.5959 -90.6924 145° Southeast  Level FlightAware Approximate
10:51PM 25.4859 -90.6070 145° Southeast  Level FlightAware Approximate
10:52PM 25.3759 -90.5218 145° Southeast  Level FlightAware Approximate
10:53PM 25.2659 -90.4368 145° Southeast  Level FlightAware Approximate
10:54PM 25.1558 -90.3519 145° Southeast  Level FlightAware Approximate
10:55PM 25.0456 -90.2671 145° Southeast  Level FlightAware Approximate
10:56PM 24.9354 -90.1825 145° Southeast  Level FlightAware Approximate
10:57PM 24.8252 -90.0981 145° Southeast  Level FlightAware Approximate
10:58PM 24.7149 -90.0137 145° Southeast  Level FlightAware Approximate
10:59PM 24.6046 -89.9296 145° Southeast  Level FlightAware Approximate
11:00PM 24.4948 -89.8448 138° Southeast  Level FlightAware Approximate
11:01PM 24.3974 -89.7433 136° Southeast  Level FlightAware Approximate
11:02PM 24.3001 -89.6417 136° Southeast  Level FlightAware Approximate
11:03PM 24.2028 -89.5403 136° Southeast  Level FlightAware Approximate
11:04PM 24.1055 -89.4390 136° Southeast  Level FlightAware Approximate
11:05PM 24.0080 -89.3378 137° Southeast  Level FlightAware Approximate
11:06PM 23.9105 -89.2368 137° Southeast  Level FlightAware Approximate
11:06PM 23.7890 -89.2930 137° Southeast 466 536 33,000  Level FlightAware
11:07PM 23.8130 -89.1360 137° Southeast  Level FlightAware Approximate
11:07PM 23.7290 -89.2350 138° Southeast 467 537 33,000  Level FlightAware
11:08PM 23.6790 -89.1850 138° Southeast 467 537 33,000  Level FlightAware
11:08PM 23.6300 -89.1370 138° Southeast 467 537 33,000  Level FlightAware
11:09PM 23.5800 -89.0880 138° Southeast 467 537 33,000  Level FlightAware
11:10PM 23.5300 -89.0390 138° Southeast 467 537 33,000  Level FlightAware
11:10PM 23.4810 -88.9910 138° Southeast 467 537 33,000  Level FlightAware
11:11PM 23.4320 -88.9420 137° Southeast 467 537 33,000  Level FlightAware
11:11PM 23.3830 -88.8940 138° Southeast 467 537 33,000  Level FlightAware
11:12PM 23.2440 -88.7890 145° Southeast 474 545 33,000  Level FlightAware
11:13PM 23.1730 -88.7250 140° Southeast 475 547 33,000  Level FlightAware
11:13PM 23.1180 -88.6750 140° Southeast 473 544 33,000  Level FlightAware
11:14PM 23.0620 -88.6230 139° Southeast 473 544 33,000  Level FlightAware
11:14PM 22.9960 -88.5620 140° Southeast 473 544 33,000  Level FlightAware
11:15PM 22.9250 -88.4960 139° Southeast 475 547 33,000  Level FlightAware
11:16PM 22.8470 -88.4240 140° Southeast 475 547 33,000  Level FlightAware
11:17PM 22.7640 -88.3480 140° Southeast 476 548 33,000  Level FlightAware
11:17PM 22.7070 -88.2950 139° Southeast 476 548 33,000  Level FlightAware
11:18PM 22.6480 -88.2420 140° Southeast 476 548 33,000  Level FlightAware
11:18PM 22.5980 -88.1960 140° Southeast 478 550 33,000  Level FlightAware
11:19PM 22.5470 -88.1490 140° Southeast 478 550 33,000  Level FlightAware
11:20PM 22.4720 -88.0800 140° Southeast 478 550 33,000  Level FlightAware
11:20PM 22.4040 -88.0180 140° Southeast 478 550 33,000  Level FlightAware
11:21PM 22.3540 -87.9710 139° Southeast 478 550 33,000  Level FlightAware
11:22PM 22.2890 -87.9130 140° Southeast 476 548 33,000  Level FlightAware
11:22PM 22.2130 -87.8440 140° Southeast 478 550 33,000  Level FlightAware
11:23PM 22.1470 -87.7850 140° Southeast 477 549 33,000  Level FlightAware
11:24PM 22.0800 -87.7230 139° Southeast 479 551 33,000  Level FlightAware
11:24PM 22.0280 -87.6760 140° Southeast 478 550 33,000  Level FlightAware
11:25PM 21.9620 -87.6170 140° Southeast 479 551 33,000  Level FlightAware
11:25PM 21.8960 -87.5570 140° Southeast 480 552 33,000  Level FlightAware
11:26PM 21.8320 -87.4990 140° Southeast 480 552 33,000  Level FlightAware
11:27PM 21.7750 -87.4480 140° Southeast 481 554 33,000  Level FlightAware
11:27PM 21.6950 -87.3760 140° Southeast 481 554 33,000  Level FlightAware
11:28PM 21.6340 -87.3210 140° Southeast 481 554 33,000  Level FlightAware
11:28PM 21.5770 -87.2690 140° Southeast 482 555 33,000  Level FlightAware
11:29PM 21.5160 -87.2150 141° Southeast 484 557 33,000  Level FlightAware
11:30PM 21.4540 -87.1590 140° Southeast 486 559 33,000  Level FlightAware
11:30PM 21.3980 -87.1090 140° Southeast 486 559 33,000  Level FlightAware
11:31PM 21.3360 -87.0540 140° Southeast 488 562 33,000  Level FlightAware
11:31PM 21.2740 -86.9980 140° Southeast 488 562 33,000  Level FlightAware
11:32PM 21.2120 -86.9500 144° Southeast 491 565 33,000  Level FlightAware
11:32PM 21.1400 -86.9070 151° Southeast 492 566 33,000  Level FlightAware
11:33PM 21.0670 -86.8630 151° Southeast 493 567 33,000  Level FlightAware
11:34PM 20.9960 -86.8200 151° Southeast 491 565 33,000  Level FlightAware
11:34PM 20.9350 -86.7820 150° Southeast 490 564 33,000  Level FlightAware
11:35PM 20.8620 -86.7380 151° Southeast 489 563 33,000  Level FlightAware
11:35PM 20.7910 -86.6940 150° Southeast 487 560 33,000  Level FlightAware
11:36PM 20.7310 -86.6570 150° Southeast 486 559 33,000  Level FlightAware
11:37PM 20.6590 -86.6130 150° Southeast 485 558 33,000  Level FlightAware
11:37PM 20.5910 -86.5710 150° Southeast 484 557 33,000  Level FlightAware
11:38PM 20.5270 -86.5310 150° Southeast 484 557 33,000  Level FlightAware
11:38PM 20.4570 -86.4880 150° Southeast 486 559 33,000  Level FlightAware
11:39PM 20.3930 -86.4480 150° Southeast 486 559 33,000  Level FlightAware
11:39PM 20.3200 -86.4030 150° Southeast 486 559 33,000  Level FlightAware
11:40PM 20.2440 -86.3530 148° Southeast 487 560 33,000  Level FlightAware
11:41PM 20.1870 -86.3070 143° Southeast 487 560 33,000  Level FlightAware
11:41PM 20.1280 -86.2450 135° Southeast 490 564 33,000  Level FlightAware
11:42PM 20.0730 -86.1830 133° Southeast 490 564 33,000  Level FlightAware
11:42PM 20.0160 -86.1200 134° Southeast 490 564 33,000  Level FlightAware
11:43PM 19.9660 -86.0650 134° Southeast 490 564 33,000  Level FlightAware
11:44PM 19.9090 -86.0020 134° Southeast 490 564 33,000  Level FlightAware
11:44PM 19.8550 -85.9370 131° Southeast 490 564 33,000  Level FlightAware
11:45PM 19.8090 -85.8780 130° Southeast 493 567 33,000  Level FlightAware
11:45PM 19.7560 -85.8100 130° Southeast 493 567 33,000  Level FlightAware
11:46PM 19.6990 -85.7390 130° Southeast 493 567 33,000  Level FlightAware
11:46PM 19.6530 -85.6800 130° Southeast 493 567 33,000  Level FlightAware
11:47PM 19.6000 -85.6140 130° Southeast 493 567 33,000  Level FlightAware
11:48PM 19.5480 -85.5470 129° Southeast 492 566 33,000  Level FlightAware
11:48PM 19.4830 -85.4640 130° Southeast 491 565 33,000  Level FlightAware
11:49PM 19.4390 -85.4070 129° Southeast 491 565 33,000  Level FlightAware
11:50PM 19.3950 -85.3490 129° Southeast 491 565 33,000  Level FlightAware
11:50PM 19.3520 -85.2920 129° Southeast 491 565 33,000  Level FlightAware
11:51PM 19.3080 -85.2350 129° Southeast 491 565 33,000  Level FlightAware
11:51PM 19.2640 -85.1780 129° Southeast 491 565 33,000  Level FlightAware
11:52PM 19.2200 -85.1200 129° Southeast 491 565 33,000  Level FlightAware
11:53PM 19.1770 -85.0630 129° Southeast 491 565 33,000  Level FlightAware
11:53PM 19.1320 -85.0040 129° Southeast 491 565 33,000  Level FlightAware
11:54PM 19.0880 -84.9470 129° Southeast 491 565 33,000  Level FlightAware
11:55PM 19.0440 -84.8900 129° Southeast 491 565 33,000  Level FlightAware
11:55PM 18.9990 -84.8310 129° Southeast 491 565 33,000  Level FlightAware
11:56PM 18.9550 -84.7740 129° Southeast 491 565 33,000  Level FlightAware
11:56PM 18.9110 -84.7160 129° Southeast 491 565 33,000  Level FlightAware
11:57PM 18.8670 -84.6590 129° Southeast 491 565 33,000  Level FlightAware
11:58PM 18.8230 -84.6010 129° Southeast 491 565 33,000  Level FlightAware
12:00AM 18.6296 -84.4113 137° Southeast  Level Estimated
12:01AM 18.5311 -84.3149 137° Southeast  Level Estimated
12:02AM 18.4326 -84.2188 137° Southeast  Level Estimated
12:03AM 18.3341 -84.1227 137° Southeast  Level Estimated
12:04AM 18.2355 -84.0267 137° Southeast  Level Estimated
12:05AM 18.1369 -83.9308 137° Southeast  Level Estimated
12:06AM 18.0382 -83.8351 137° Southeast  Level Estimated
12:07AM 17.9395 -83.7394 137° Southeast  Level Estimated
12:08AM 17.8407 -83.6438 137° Southeast  Level Estimated
12:09AM 17.7419 -83.5484 137° Southeast  Level Estimated
12:10AM 17.6431 -83.4531 137° Southeast  Level Estimated
12:11AM 17.5442 -83.3578 137° Southeast  Level Estimated
12:12AM 17.4452 -83.2627 137° Southeast  Level Estimated
12:13AM 17.3462 -83.1677 137° Southeast  Level Estimated
12:14AM 17.2472 -83.0727 138° Southeast  Level Estimated
12:15AM 17.1481 -82.9779 138° Southeast  Level Estimated
12:16AM 17.0490 -82.8832 138° Southeast  Level Estimated
12:17AM 16.9498 -82.7886 138° Southeast  Level Estimated
12:18AM 16.8506 -82.6941 138° Southeast  Level Estimated
12:19AM 16.7513 -82.5996 138° Southeast  Level Estimated
12:20AM 16.6520 -82.5053 138° Southeast  Level Estimated
12:21AM 16.5527 -82.4111 138° Southeast  Level Estimated
12:22AM 16.4533 -82.3170 138° Southeast  Level Estimated
12:23AM 16.3538 -82.2230 138° Southeast  Level Estimated
12:24AM 16.2544 -82.1290 138° Southeast  Level Estimated
12:25AM 16.1549 -82.0352 138° Southeast  Level Estimated
12:26AM 16.0553 -81.9414 138° Southeast  Level Estimated
12:27AM 15.9557 -81.8478 138° Southeast  Level Estimated
12:28AM 15.8560 -81.7542 138° Southeast  Level Estimated
12:29AM 15.7564 -81.6607 138° Southeast  Level Estimated
12:30AM 15.6566 -81.5674 138° Southeast  Level Estimated
12:31AM 15.5569 -81.4741 138° Southeast  Level Estimated
12:32AM 15.4571 -81.3809 138° Southeast  Level Estimated
12:33AM 15.3573 -81.2878 138° Southeast  Level Estimated
12:34AM 15.2574 -81.1948 138° Southeast  Level Estimated
12:35AM 15.1575 -81.1019 138° Southeast  Level Estimated
12:36AM 15.0575 -81.0090 138° Southeast  Level Estimated
12:37AM 14.9575 -80.9163 138° Southeast  Level Estimated
12:38AM 14.8575 -80.8236 138° Southeast  Level Estimated
12:39AM 14.7575 -80.7310 138° Southeast  Level Estimated
12:40AM 14.6574 -80.6385 138° Southeast  Level Estimated
12:41AM 14.5572 -80.5461 138° Southeast  Level Estimated
12:42AM 14.4571 -80.4538 138° Southeast  Level Estimated
12:43AM 14.3568 -80.3616 138° Southeast  Level Estimated
12:44AM 14.2566 -80.2694 138° Southeast  Level Estimated
12:45AM 14.1563 -80.1773 138° Southeast  Level Estimated
12:46AM 14.0560 -80.0853 138° Southeast  Level Estimated
12:47AM 13.9557 -79.9934 138° Southeast  Level Estimated
12:48AM 13.8553 -79.9016 138° Southeast  Level Estimated
12:49AM 13.7549 -79.8098 138° Southeast  Level Estimated
12:50AM 13.6544 -79.7181 138° Southeast  Level Estimated
12:51AM 13.5539 -79.6265 138° Southeast  Level Estimated
12:52AM 13.4534 -79.5350 138° Southeast  Level Estimated
12:53AM 13.3529 -79.4436 138° Southeast  Level Estimated
12:54AM 13.2523 -79.3522 139° Southeast  Level Estimated
12:55AM 13.1517 -79.2609 139° Southeast  Level Estimated
12:56AM 13.0510 -79.1697 139° Southeast  Level Estimated
12:57AM 12.9503 -79.0785 139° Southeast  Level Estimated
12:58AM 12.8496 -78.9875 139° Southeast  Level Estimated
12:59AM 12.7489 -78.8965 139° Southeast  Level Estimated
01:00AM 12.6481 -78.8055 139° Southeast  Level Estimated
01:01AM 12.5473 -78.7147 139° Southeast  Level Estimated
01:02AM 12.4465 -78.6239 139° Southeast  Level Estimated
01:03AM 12.3456 -78.5332 139° Southeast  Level Estimated
01:04AM 12.2447 -78.4426 139° Southeast  Level Estimated
01:05AM 12.1438 -78.3520 139° Southeast  Level Estimated
01:06AM 12.0428 -78.2615 139° Southeast  Level Estimated
01:07AM 11.9419 -78.1710 139° Southeast  Level Estimated
01:08AM 11.8409 -78.0807 139° Southeast  Level Estimated
01:09AM 11.7398 -77.9904 139° Southeast  Level Estimated
01:10AM 11.6388 -77.9001 139° Southeast  Level Estimated
01:11AM 11.5377 -77.8100 139° Southeast  Level Estimated
01:12AM 11.4365 -77.7198 139° Southeast  Level Estimated
01:13AM 11.3354 -77.6298 139° Southeast  Level Estimated
01:14AM 11.2342 -77.5398 139° Southeast  Level Estimated
01:15AM 11.1330 -77.4499 139° Southeast  Level Estimated
01:16AM 11.0317 -77.3601 139° Southeast  Level Estimated
01:16AM 11.0630 -77.2540 139° Southeast 483 556 33,000  Level FlightAware
01:17AM 10.9305 -77.2703 139° Southeast  Level Estimated
01:17AM 11.0250 -77.1660 114° Southeast 479 551 33,000  Level FlightAware
01:17AM 10.9830 -77.0800 116° Southeast 473 544 33,000  Level FlightAware
01:18AM 10.9530 -77.0100 114° Southeast 472 543 33,000  Level FlightAware
01:19AM 10.9270 -76.9470 113° Southeast 472 543 33,000  Level FlightAware
01:19AM 10.9010 -76.8840 113° Southeast 472 543 33,000  Level FlightAware
01:20AM 10.8750 -76.8220 113° Southeast 472 543 33,000  Level FlightAware
01:20AM 10.8440 -76.7650 119° Southeast 484 557 33,000  Level FlightAware
01:21AM 10.8000 -76.6640 114° Southeast 484 557 33,000  Level FlightAware
01:21AM 10.7680 -76.5900 114° Southeast 483 556 33,000  Level FlightAware
01:22AM 10.7430 -76.5350 115° Southeast 484 557 33,000  Level FlightAware
01:22AM 10.7070 -76.4520 114° Southeast 486 559 33,000  Level FlightAware
01:23AM 10.6750 -76.3800 114° Southeast 487 560 33,000  Level FlightAware
01:24AM 10.6420 -76.3090 115° Southeast 485 558 33,000  Level FlightAware
01:24AM 10.6080 -76.2350 115° Southeast 485 558 33,000  Level FlightAware
01:25AM 10.5760 -76.1620 114° Southeast 485 558 33,000  Level FlightAware
01:25AM 10.5400 -76.0800 114° Southeast 485 558 33,000  Level FlightAware
01:26AM 10.5170 -76.0170 110° East 486 559 33,000  Level FlightAware
01:26AM 10.4940 -75.9390 107° East 485 558 33,000  Level FlightAware
01:27AM 10.4710 -75.8610 107° East 485 558 33,000  Level FlightAware
01:28AM 10.4440 -75.7740 108° East 485 558 33,000  Level FlightAware
01:28AM 10.4250 -75.7090 107° East 486 559 33,000  Level FlightAware
01:29AM 10.4020 -75.6330 107° East 485 558 33,000  Level FlightAware
01:29AM 10.3800 -75.5570 106° East 484 557 33,000  Level FlightAware
01:30AM 10.3660 -75.4900 102° East 484 557 33,000  Level FlightAware
01:30AM 10.3690 -75.4150 88° East 487 560 33,000  Level FlightAware
01:31AM 10.3760 -75.3300 85° East 489 563 33,000  Level FlightAware
01:32AM 10.3830 -75.2550 85° East 489 563 33,000  Level FlightAware
01:32AM 10.3900 -75.1710 85° East 487 560 33,000  Level FlightAware
01:33AM 10.4000 -75.0920 83° East 486 559 33,000  Level FlightAware
01:33AM 10.4120 -75.0140 81° East 486 559 33,000  Level FlightAware
01:34AM 10.4230 -74.9350 82° East 485 558 33,000  Level FlightAware
01:35AM 10.4340 -74.8570 82° East 484 557 33,000  Level FlightAware
01:35AM 10.4500 -74.7820 78° East 485 558 33,000  Level FlightAware
01:36AM 10.4680 -74.7000 77° East 487 560 33,000  Level FlightAware
01:36AM 10.4840 -74.6280 77° East 488 562 33,000  Level FlightAware
01:37AM 10.5050 -74.5450 76° East 488 562 33,000  Level FlightAware
01:38AM 10.5290 -74.4690 72° East 488 562 33,000  Level FlightAware
01:38AM 10.5500 -74.4020 72° East 488 562 33,000  Level FlightAware
01:39AM 10.5710 -74.3350 72° East 488 562 33,000  Level FlightAware
01:39AM 10.6200 -74.2340 64° Northeast 951 1094 33,000  Level FlightAware
01:42AM 10.3830 -74.0435 142° Southeast  Level Estimated
01:43AM 10.2776 -73.9589 142° Southeast  Level Estimated
01:44AM 10.1723 -73.8744 142° Southeast  Level Estimated
01:45AM 10.0668 -73.7900 142° Southeast  Level Estimated
01:46AM 9.9614 -73.7056 142° Southeast  Level Estimated
01:47AM 9.8560 -73.6212 142° Southeast  Level Estimated
01:48AM 9.7505 -73.5369 142° Southeast  Level Estimated
01:49AM 9.6450 -73.4527 142° Southeast  Level Estimated
01:50AM 9.5395 -73.3685 142° Southeast  Level Estimated
01:51AM 9.4340 -73.2844 142° Southeast  Level Estimated
01:52AM 9.3284 -73.2003 142° Southeast  Level Estimated
01:53AM 9.2228 -73.1163 142° Southeast  Level Estimated
01:54AM 9.1173 -73.0323 142° Southeast  Level Estimated
01:55AM 9.0117 -72.9483 142° Southeast  Level Estimated
01:56AM 8.9060 -72.8645 142° Southeast  Level Estimated
01:57AM 8.8004 -72.7806 142° Southeast  Level Estimated
01:58AM 8.6947 -72.6969 142° Southeast  Level Estimated
01:59AM 8.5890 -72.6131 142° Southeast  Level Estimated
02:00AM 8.4833 -72.5294 142° Southeast  Level Estimated
02:00AM 10.2640 -71.4710 142° Southeast 495 570 33,000  Level FlightAware
02:01AM 8.3776 -72.4458 142° Southeast  Level Estimated
02:01AM 10.2440 -71.3890 104° East 495 570 33,000  Level FlightAware
02:02AM 10.2220 -71.2990 104° East 498 573 33,000  Level FlightAware
02:02AM 10.2030 -71.2200 104° East 499 574 33,000  Level FlightAware
02:03AM 10.1840 -71.1400 104° East 500 575 33,000  Level FlightAware
02:03AM 10.1640 -71.0590 104° East 501 577 33,000  Level FlightAware
02:04AM 10.1460 -70.9800 103° East 501 577 33,000  Level FlightAware
02:05AM 10.1270 -70.8980 103° East 500 575 33,000  Level FlightAware
02:05AM 10.1080 -70.8200 104° East 500 575 33,000  Level FlightAware
02:06AM 10.0860 -70.7260 103° East 498 573 33,000  Level FlightAware
02:06AM 10.0690 -70.6500 103° East 498 573 33,000  Level FlightAware
02:07AM 10.0490 -70.5680 104° East 498 573 33,000  Level FlightAware
02:08AM 10.0310 -70.4890 103° East 498 573 33,000  Level FlightAware
02:08AM 10.0100 -70.3990 103° East 499 574 33,000  Level FlightAware
02:09AM 9.9950 -70.3300 102° East 500 575 33,000  Level FlightAware
02:09AM 9.9760 -70.2490 103° East 501 577 33,000  Level FlightAware
02:10AM 9.9570 -70.1690 104° East 501 577 33,000  Level FlightAware
02:11AM 9.9380 -70.0880 103° East 501 577 33,000  Level FlightAware
02:11AM 9.9190 -70.0100 104° East 500 575 33,000  Level FlightAware
02:12AM 9.8940 -69.9050 104° East 499 574 33,000  Level FlightAware
02:12AM 9.8760 -69.8380 105° East 500 575 33,000  Level FlightAware
02:13AM 9.8470 -69.7600 111° Southeast 500 575 33,000  Level FlightAware
02:14AM 9.8180 -69.6840 111° Southeast 500 575 33,000  Level FlightAware
02:14AM 9.7900 -69.6070 110° East 500 575 33,000  Level FlightAware
02:15AM 9.7500 -69.5180 115° Southeast 502 578 33,000  Level FlightAware
02:16AM 9.7030 -69.4170 115° Southeast 502 578 33,000  Level FlightAware
02:16AM 9.6680 -69.3390 114° Southeast 500 575 33,000  Level FlightAware
02:17AM 9.6360 -69.2710 116° Southeast 498 573 33,000  Level FlightAware
02:17AM 9.5950 -69.1800 115° Southeast 497 572 33,000  Level FlightAware
02:18AM 9.5660 -69.1150 114° Southeast 498 573 33,000  Level FlightAware
02:19AM 9.5380 -69.0530 115° Southeast 498 573 33,000  Level FlightAware
02:19AM 9.5020 -68.9730 115° Southeast 498 573 33,000  Level FlightAware
02:20AM 9.4480 -68.8560 115° Southeast 499 574 33,000  Level FlightAware
02:21AM 9.4200 -68.7910 114° Southeast 499 574 33,000  Level FlightAware
02:21AM 9.3910 -68.7260 114° Southeast 499 574 33,000  Level FlightAware
02:22AM 9.3240 -68.5690 113° Southeast 492 566 33,000  Level FlightAware
02:23AM 9.2970 -68.4640 105° East 493 567 33,000  Level FlightAware
02:24AM 9.2390 -68.3710 122° Southeast 489 563 33,000  Level FlightAware
02:25AM 9.2000 -68.3110 123° Southeast 489 563 33,000  Level FlightAware
02:25AM 9.1380 -68.2580 140° Southeast 643 740 33,000  Level FlightAware
02:28AM 8.8559 -68.0739 147° Southeast  Level Estimated
02:29AM 8.7431 -68.0003 147° Southeast  Level Estimated
02:30AM 8.6302 -67.9268 147° Southeast  Level Estimated
02:31AM 8.5173 -67.8533 147° Southeast  Level Estimated
02:32AM 8.4044 -67.7798 147° Southeast  Level Estimated
02:33AM 8.2915 -67.7064 147° Southeast  Level Estimated
02:34AM 8.1786 -67.6331 147° Southeast  Level Estimated
02:35AM 8.0656 -67.5597 147° Southeast  Level Estimated
02:36AM 7.9527 -67.4865 147° Southeast  Level Estimated
02:37AM 7.8397 -67.4132 147° Southeast  Level Estimated
02:38AM 7.7267 -67.3400 147° Southeast  Level Estimated
02:39AM 7.6137 -67.2669 147° Southeast  Level Estimated
02:40AM 7.5008 -67.1937 147° Southeast  Level Estimated
02:41AM 7.3877 -67.1207 147° Southeast  Level Estimated
02:42AM 7.2747 -67.0476 147° Southeast  Level Estimated
02:43AM 7.1617 -66.9746 147° Southeast  Level Estimated
02:44AM 7.0486 -66.9016 147° Southeast  Level Estimated
02:45AM 6.9356 -66.8287 147° Southeast  Level Estimated
02:46AM 6.8225 -66.7558 147° Southeast  Level Estimated
02:47AM 6.7094 -66.6829 147° Southeast  Level Estimated
02:48AM 6.6026 -66.6142 147° Southeast  Level Estimated
02:49AM 6.4959 -66.5454 147° Southeast  Level Estimated
02:50AM 6.3891 -66.4768 147° Southeast  Level Estimated
02:51AM 6.2823 -66.4081 147° Southeast  Level Estimated
02:52AM 6.1755 -66.3394 147° Southeast  Level Estimated
02:53AM 6.0686 -66.2708 147° Southeast  Level Estimated
02:54AM 5.9618 -66.2022 147° Southeast  Level Estimated
02:55AM 5.8550 -66.1337 147° Southeast  Level Estimated
02:56AM 5.7482 -66.0651 147° Southeast  Level Estimated
02:57AM 5.6413 -65.9966 147° Southeast  Level Estimated
02:58AM 5.5345 -65.9281 147° Southeast  Level Estimated
02:59AM 5.4276 -65.8597 147° Southeast  Level Estimated
03:00AM 5.3207 -65.7912 147° Southeast  Level Estimated
03:01AM 5.2138 -65.7228 147° Southeast  Level Estimated
03:02AM 5.1069 -65.6544 147° Southeast  Level Estimated
03:03AM 5.0001 -65.5861 147° Southeast  Level Estimated
03:04AM 4.8932 -65.5177 148° Southeast  Level Estimated
03:05AM 4.7863 -65.4494 148° Southeast  Level Estimated
03:06AM 4.6793 -65.3811 148° Southeast  Level Estimated
03:07AM 4.5724 -65.3128 148° Southeast  Level Estimated
03:08AM 4.4655 -65.2446 148° Southeast  Level Estimated
03:09AM 4.3586 -65.1763 148° Southeast  Level Estimated
03:10AM 4.2516 -65.1081 148° Southeast  Level Estimated
03:11AM 4.1447 -65.0399 148° Southeast  Level Estimated
03:12AM 4.0377 -64.9717 148° Southeast  Level Estimated
03:13AM 3.9308 -64.9036 148° Southeast  Level Estimated
03:14AM 3.8238 -64.8354 148° Southeast  Level Estimated
03:15AM 3.7168 -64.7673 148° Southeast  Level Estimated
03:16AM 3.6099 -64.6992 148° Southeast  Level Estimated
03:17AM 3.5029 -64.6311 148° Southeast  Level Estimated
03:18AM 3.3959 -64.5630 148° Southeast  Level Estimated
03:19AM 3.2889 -64.4949 148° Southeast  Level Estimated
03:20AM 3.1819 -64.4269 148° Southeast  Level Estimated
03:21AM 3.0749 -64.3588 148° Southeast  Level Estimated
03:22AM 2.9679 -64.2908 148° Southeast  Level Estimated
03:23AM 2.8609 -64.2228 148° Southeast  Level Estimated
03:24AM 2.7539 -64.1548 148° Southeast  Level Estimated
03:25AM 2.6469 -64.0868 148° Southeast  Level Estimated
03:26AM 2.5399 -64.0189 148° Southeast  Level Estimated
03:27AM 2.4328 -63.9509 148° Southeast  Level Estimated
03:28AM 2.3258 -63.8829 148° Southeast  Level Estimated
03:29AM 2.2188 -63.8150 148° Southeast  Level Estimated
03:30AM 2.1118 -63.7471 148° Southeast  Level Estimated
03:31AM 2.0047 -63.6791 148° Southeast  Level Estimated
03:32AM 1.8977 -63.6112 148° Southeast  Level Estimated
03:33AM 1.7907 -63.5433 148° Southeast  Level Estimated
03:34AM 1.6836 -63.4754 148° Southeast  Level Estimated
03:35AM 1.5766 -63.4075 148° Southeast  Level Estimated
03:36AM 1.4695 -63.3397 148° Southeast  Level Estimated
03:37AM 1.3625 -63.2718 148° Southeast  Level Estimated
03:38AM 1.2554 -63.2039 148° Southeast  Level Estimated
03:39AM 1.1484 -63.1360 148° Southeast  Level Estimated
03:40AM 1.0413 -63.0682 148° Southeast  Level Estimated
03:41AM 0.9343 -63.0003 148° Southeast  Level Estimated
03:42AM 0.8272 -62.9325 148° Southeast  Level Estimated
03:43AM 0.7201 -62.8646 148° Southeast  Level Estimated
03:44AM 0.6131 -62.7968 148° Southeast  Level Estimated
03:45AM 0.5060 -62.7289 148° Southeast  Level Estimated
03:46AM 0.3990 -62.6611 148° Southeast  Level Estimated
03:47AM 0.2919 -62.5933 148° Southeast  Level Estimated
03:48AM 0.1849 -62.5254 148° Southeast  Level Estimated
03:49AM 0.0778 -62.4576 148° Southeast  Level Estimated
03:50AM -0.0293 -62.3897 148° Southeast  Level Estimated
03:51AM -0.1363 -62.3219 148° Southeast  Level Estimated
03:52AM -0.2434 -62.2541 148° Southeast  Level Estimated
03:53AM -0.3505 -62.1862 148° Southeast  Level Estimated
03:54AM -0.4575 -62.1184 148° Southeast  Level Estimated
03:55AM -0.5646 -62.0505 148° Southeast  Level Estimated
03:56AM -0.6716 -61.9827 148° Southeast  Level Estimated
03:57AM -0.7787 -61.9148 148° Southeast  Level Estimated
03:58AM -0.8857 -61.8470 148° Southeast  Level Estimated
03:59AM -0.9928 -61.7791 148° Southeast  Level Estimated
04:00AM -1.0999 -61.7113 148° Southeast  Level Estimated
04:00AM -1.9680 -61.8910 148° Southeast 484 557 35,000  Level FlightAware
04:00AM -2.0280 -61.8520 147° Southeast 484 557 35,000  Level FlightAware
04:01AM -2.1220 -61.7850 145° Southeast 484 557 35,000  Level FlightAware
04:02AM -2.1670 -61.7360 133° Southeast 484 557 35,000  Level FlightAware
04:02AM -2.2130 -61.6850 132° Southeast 484 557 35,000  Level FlightAware
04:03AM -2.2590 -61.6340 132° Southeast 484 557 35,000  Level FlightAware
04:03AM -2.2710 -61.5590 99° East 481 554 35,000  Level FlightAware
04:04AM -2.3050 -61.4860 115° Southeast 481 554 35,000  Level FlightAware
04:04AM -2.3340 -61.4220 114° Southeast 481 554 35,000  Level FlightAware
04:05AM -2.3620 -61.3460 110° East 482 555 35,000  Level FlightAware
04:05AM -2.3900 -61.2710 110° East 482 555 35,000  Level FlightAware
04:06AM -2.4170 -61.1960 110° East 483 556 35,000  Level FlightAware
04:06AM -2.4420 -61.1290 110° East 485 558 35,000  Level FlightAware
04:07AM -2.4680 -61.0560 110° East 485 558 35,000  Level FlightAware
04:08AM -2.4960 -60.9770 110° East 486 559 35,000  Level FlightAware
04:08AM -2.5200 -60.9080 109° East 487 560 35,000  Level FlightAware
04:09AM -2.5470 -60.8320 110° East 486 559 35,000  Level FlightAware
04:09AM -2.5740 -60.7510 108° East 486 559 35,000  Level FlightAware
04:10AM -2.5970 -60.6840 109° East 486 559 35,000  Level FlightAware
04:11AM -2.6230 -60.6070 109° East 484 557 35,000  Level FlightAware
04:11AM -2.6470 -60.5340 108° East 483 556 35,000  Level FlightAware
04:12AM -2.6750 -60.4600 111° Southeast 483 556 35,000  Level FlightAware
04:12AM -2.7110 -60.3910 118° Southeast 485 558 35,000  Level FlightAware
04:13AM -2.7590 -60.3260 126° Southeast 486 559 35,000  Level FlightAware
04:13AM -2.8100 -60.2630 129° Southeast 487 560 35,000  Level FlightAware
04:14AM -2.8550 -60.2050 128° Southeast 487 560 35,000  Level FlightAware
04:15AM -2.9080 -60.1440 131° Southeast 487 560 35,000  Level FlightAware
04:15AM -2.9720 -60.0890 139° Southeast 490 564 35,000  Level FlightAware
04:16AM -3.0300 -60.0450 143° Southeast 492 566 35,000  Level FlightAware
04:16AM -3.0970 -60.0010 147° Southeast 492 566 35,000  Level FlightAware
04:17AM -3.1700 -59.9590 150° Southeast 493 567 35,000  Level FlightAware
04:18AM -3.2420 -59.9180 150° Southeast 492 566 35,000  Level FlightAware
04:18AM -3.3050 -59.8820 150° Southeast 490 564 35,000  Level FlightAware
04:19AM -3.3750 -59.8420 150° Southeast 491 565 35,000  Level FlightAware
04:19AM -3.4440 -59.8020 150° Southeast 491 565 35,000  Level FlightAware
04:20AM -3.5160 -59.7620 151° Southeast 489 563 35,000  Level FlightAware
04:20AM -3.5870 -59.7210 150° Southeast 488 562 35,000  Level FlightAware
04:21AM -3.6560 -59.6820 151° Southeast 490 564 35,000  Level FlightAware
04:22AM -3.7200 -59.6450 150° Southeast 492 566 35,000  Level FlightAware
04:22AM -3.7900 -59.6050 150° Southeast 490 564 35,000  Level FlightAware
04:23AM -3.8690 -59.5720 157° South 489 563 35,000  Level FlightAware
04:23AM -3.9350 -59.5490 161° South 492 566 35,000  Level FlightAware
04:24AM -4.0140 -59.5210 161° South 493 567 35,000  Level FlightAware
04:25AM -4.0920 -59.4940 161° South 495 570 35,000  Level FlightAware
04:25AM -4.1760 -59.4640 160° South 494 568 35,000  Level FlightAware
04:26AM -4.2420 -59.4400 160° South 494 568 35,000  Level FlightAware
04:26AM -4.3080 -59.4160 160° South 494 568 35,000  Level FlightAware
04:27AM -4.3730 -59.3920 160° South 494 568 35,000  Level FlightAware
04:28AM -4.4390 -59.3680 160° South 494 568 35,000  Level FlightAware
04:28AM -4.5070 -59.3430 160° South 494 568 35,000  Level FlightAware
04:29AM -4.5690 -59.3200 160° South 494 568 35,000  Level FlightAware
04:29AM -4.6310 -59.2980 161° South 494 568 35,000  Level FlightAware
04:30AM -4.6960 -59.2740 160° South 494 568 35,000  Level FlightAware
04:31AM -4.7640 -59.2490 160° South 494 568 35,000  Level FlightAware
04:31AM -4.8300 -59.2250 160° South 494 568 35,000  Level FlightAware
04:32AM -4.9010 -59.1990 160° South 494 568 35,000  Level FlightAware
04:32AM -4.9670 -59.1750 160° South 494 568 35,000  Level FlightAware
04:33AM -5.0320 -59.1510 160° South 494 568 35,000  Level FlightAware
04:34AM -5.0980 -59.1270 160° South 494 568 35,000  Level FlightAware
04:34AM -5.1640 -59.1030 160° South 494 568 35,000  Level FlightAware
04:37AM -5.4010 -58.9515 148° Southeast  Level Estimated
04:38AM -5.5079 -58.8832 148° Southeast  Level Estimated
04:39AM -5.6149 -58.8148 148° Southeast  Level Estimated
04:40AM -5.7218 -58.7463 148° Southeast  Level Estimated
04:41AM -5.8287 -58.6779 148° Southeast  Level Estimated
04:42AM -5.9356 -58.6094 147° Southeast  Level Estimated
04:43AM -6.0424 -58.5409 147° Southeast  Level Estimated
04:44AM -6.1493 -58.4724 147° Southeast  Level Estimated
04:45AM -6.2562 -58.4039 147° Southeast  Level Estimated
04:46AM -6.3630 -58.3353 147° Southeast  Level Estimated
04:47AM -6.4699 -58.2667 147° Southeast  Level Estimated
04:48AM -6.5767 -58.1980 147° Southeast  Level Estimated
04:49AM -6.6835 -58.1294 147° Southeast  Level Estimated
04:50AM -6.7903 -58.0607 147° Southeast  Level Estimated
04:51AM -6.8971 -57.9919 147° Southeast  Level Estimated
04:52AM -7.0039 -57.9232 147° Southeast  Level Estimated
04:53AM -7.1107 -57.8544 147° Southeast  Level Estimated
04:54AM -7.2175 -57.7856 147° Southeast  Level Estimated
04:55AM -7.3243 -57.7167 147° Southeast  Level Estimated
04:56AM -7.4310 -57.6478 147° Southeast  Level Estimated
04:57AM -7.5378 -57.5789 147° Southeast  Level Estimated
04:58AM -7.6445 -57.5099 147° Southeast  Level Estimated
04:59AM -7.7512 -57.4410 147° Southeast  Level Estimated
05:00AM -7.8579 -57.3719 147° Southeast  Level Estimated
05:01AM -7.9646 -57.3029 147° Southeast  Level Estimated
05:02AM -8.0713 -57.2338 147° Southeast  Level Estimated
05:03AM -8.1780 -57.1646 147° Southeast  Level Estimated
05:04AM -8.2847 -57.0955 147° Southeast  Level Estimated
05:05AM -8.3913 -57.0263 147° Southeast  Level Estimated
05:06AM -8.4979 -56.9570 147° Southeast  Level Estimated
05:07AM -8.6046 -56.8877 147° Southeast  Level Estimated
05:08AM -8.7112 -56.8184 147° Southeast  Level Estimated
05:09AM -8.8178 -56.7491 147° Southeast  Level Estimated
05:10AM -8.9244 -56.6797 147° Southeast  Level Estimated
05:11AM -9.0310 -56.6102 147° Southeast  Level Estimated
05:12AM -9.1375 -56.5407 147° Southeast  Level Estimated
05:13AM -9.2441 -56.4712 147° Southeast  Level Estimated
05:14AM -9.3506 -56.4016 147° Southeast  Level Estimated
05:15AM -9.4568 -56.3323 147° Southeast  Level Estimated
05:16AM -9.5630 -56.2628 147° Southeast  Level Estimated
05:17AM -9.6691 -56.1934 147° Southeast  Level Estimated
05:18AM -9.7752 -56.1239 147° Southeast  Level Estimated
05:19AM -9.8813 -56.0543 147° Southeast  Level Estimated
05:20AM -9.9874 -55.9847 147° Southeast  Level Estimated
05:21AM -10.0935 -55.9151 147° Southeast  Level Estimated
05:22AM -10.1996 -55.8454 147° Southeast  Level Estimated
05:23AM -10.3056 -55.7757 147° Southeast  Level Estimated
05:24AM -10.4117 -55.7059 147° Southeast  Level Estimated
05:25AM -10.5177 -55.6361 147° Southeast  Level Estimated
05:26AM -10.6237 -55.5662 147° Southeast  Level Estimated
05:27AM -10.7297 -55.4963 147° Southeast  Level Estimated
05:28AM -10.8357 -55.4263 147° Southeast  Level Estimated
05:29AM -10.9416 -55.3563 147° Southeast  Level Estimated
05:30AM -11.0476 -55.2862 147° Southeast  Level Estimated
05:31AM -11.1535 -55.2161 147° Southeast  Level Estimated
05:32AM -11.2594 -55.1459 147° Southeast  Level Estimated
05:33AM -11.3653 -55.0757 147° Southeast  Level Estimated
05:34AM -11.4712 -55.0054 147° Southeast  Level Estimated
05:35AM -11.5770 -54.9351 147° Southeast  Level Estimated
05:36AM -11.6829 -54.8647 147° Southeast  Level Estimated
05:37AM -11.7887 -54.7943 147° Southeast  Level Estimated
05:38AM -11.8945 -54.7238 147° Southeast  Level Estimated
05:39AM -12.0003 -54.6532 147° Southeast  Level Estimated
05:40AM -12.1061 -54.5826 147° Southeast  Level Estimated
05:41AM -12.2119 -54.5120 147° Southeast  Level Estimated
05:42AM -12.3176 -54.4412 147° Southeast  Level Estimated
05:43AM -12.4233 -54.3705 147° Southeast  Level Estimated
05:44AM -12.5290 -54.2996 147° Southeast  Level Estimated
05:45AM -12.6347 -54.2288 147° Southeast  Level Estimated
05:46AM -12.7404 -54.1578 147° Southeast  Level Estimated
05:47AM -12.8460 -54.0868 147° Southeast  Level Estimated
05:48AM -12.9516 -54.0158 147° Southeast  Level Estimated
05:49AM -13.0573 -53.9446 147° Southeast  Level Estimated
05:50AM -13.1628 -53.8734 147° Southeast  Level Estimated
05:51AM -13.2684 -53.8022 147° Southeast  Level Estimated
05:52AM -13.3740 -53.7309 147° Southeast  Level Estimated
05:53AM -13.4795 -53.6595 147° Southeast  Level Estimated
05:54AM -13.5850 -53.5881 147° Southeast  Level Estimated
05:55AM -13.6905 -53.5166 147° Southeast  Level Estimated
05:56AM -13.7960 -53.4450 147° Southeast  Level Estimated
05:57AM -13.9014 -53.3734 147° Southeast  Level Estimated
05:58AM -14.0068 -53.3017 147° Southeast  Level Estimated
05:59AM -14.1123 -53.2299 147° Southeast  Level Estimated
06:00AM -14.2176 -53.1581 147° Southeast  Level Estimated
06:01AM -14.3230 -53.0862 147° Southeast  Level Estimated
06:02AM -14.4283 -53.0143 147° Southeast  Level Estimated
06:03AM -14.5337 -52.9422 146° Southeast  Level Estimated
06:04AM -14.6390 -52.8701 146° Southeast  Level Estimated
06:05AM -14.7442 -52.7980 146° Southeast  Level Estimated
06:06AM -14.8495 -52.7257 146° Southeast  Level Estimated
06:07AM -14.9547 -52.6534 146° Southeast  Level Estimated
06:08AM -15.0599 -52.5810 146° Southeast  Level Estimated
06:09AM -15.1651 -52.5086 146° Southeast  Level Estimated
06:10AM -15.2703 -52.4361 146° Southeast  Level Estimated
06:11AM -15.3754 -52.3635 146° Southeast  Level Estimated
06:12AM -15.4805 -52.2908 146° Southeast  Level Estimated
06:13AM -15.5856 -52.2181 146° Southeast  Level Estimated
06:14AM -15.6907 -52.1453 146° Southeast  Level Estimated
06:15AM -15.7957 -52.0724 146° Southeast  Level Estimated
06:16AM -15.9007 -51.9994 146° Southeast  Level Estimated
06:17AM -16.0057 -51.9264 146° Southeast  Level Estimated
06:18AM -16.1107 -51.8532 146° Southeast  Level Estimated
06:19AM -16.2156 -51.7800 146° Southeast  Level Estimated
06:20AM -16.3205 -51.7068 146° Southeast  Level Estimated
06:21AM -16.4254 -51.6334 146° Southeast  Level Estimated
06:22AM -16.5303 -51.5600 146° Southeast  Level Estimated
06:23AM -16.6351 -51.4865 146° Southeast  Level Estimated
06:24AM -16.7400 -51.4129 146° Southeast  Level Estimated
06:24AM -18.1780 -50.5400 146° Southeast 519 597 36,900  Level FlightAware
06:25AM -16.8447 -51.3392 146° Southeast  Level Estimated
06:25AM -18.2380 -50.4920 143° Southeast 519 597 36,900  Level FlightAware
06:25AM -18.2960 -50.4440 142° Southeast 519 597 36,900  Level FlightAware
06:26AM -18.3540 -50.3960 142° Southeast 519 597 36,900  Level FlightAware
06:26AM -18.4120 -50.3490 142° Southeast 519 597 36,900  Level FlightAware
06:27AM -18.4700 -50.3010 142° Southeast 519 597 36,900 -1,680 Level FlightAware
06:28AM -18.5820 -50.2110 143° Southeast 515 593 35,000 -1,680 Descending FlightAware
06:28AM -18.6520 -50.1530 142° Southeast 515 593 35,000  Level FlightAware
06:29AM -18.7210 -50.0970 142° Southeast 516 594 35,000  Level FlightAware
06:29AM -18.7830 -50.0460 142° Southeast 516 594 35,000  Level FlightAware
06:30AM -18.8430 -49.9970 142° Southeast 517 595 35,000  Level FlightAware
06:31AM -18.9350 -49.9210 142° Southeast 518 596 35,000  Level FlightAware
06:31AM -18.9970 -49.8700 142° Southeast 519 597 35,000  Level FlightAware
06:32AM -19.0660 -49.8130 142° Southeast 519 597 35,000  Level FlightAware
06:32AM -19.1330 -49.7580 142° Southeast 519 597 35,000  Level FlightAware
06:33AM -19.1970 -49.7050 142° Southeast 521 600 35,000  Level FlightAware
06:34AM -19.2710 -49.6430 142° Southeast 521 600 35,000  Level FlightAware
06:34AM -19.3310 -49.5940 142° Southeast 522 601 35,000  Level FlightAware
06:35AM -19.3990 -49.5380 142° Southeast 522 601 35,000  Level FlightAware
06:35AM -19.4680 -49.4810 142° Southeast 523 602 35,000  Level FlightAware
06:36AM -19.5360 -49.4230 141° Southeast 523 602 35,000  Level FlightAware
06:37AM -19.5960 -49.3740 142° Southeast 523 602 35,000  Level FlightAware
06:37AM -19.6630 -49.3180 142° Southeast 524 603 35,000  Level FlightAware
06:38AM -19.7360 -49.2570 142° Southeast 524 603 35,000  Level FlightAware
06:38AM -19.8040 -49.2040 144° Southeast 522 601 35,000  Level FlightAware
06:39AM -19.8670 -49.1560 144° Southeast 522 601 35,000  Level FlightAware
06:39AM -19.9380 -49.1020 144° Southeast 524 603 35,000  Level FlightAware
06:40AM -20.0100 -49.0470 144° Southeast 525 604 35,000  Level FlightAware
06:41AM -20.0720 -48.9980 143° Southeast 525 604 35,000  Level FlightAware
06:41AM -20.1400 -48.9450 144° Southeast 525 604 35,000  Level FlightAware
06:42AM -20.2140 -48.8880 144° Southeast 526 605 35,000  Level FlightAware
06:42AM -20.2790 -48.8360 143° Southeast 527 606 35,000  Level FlightAware
06:43AM -20.3500 -48.7810 144° Southeast 527 606 35,000  Level FlightAware
06:44AM -20.4210 -48.7260 144° Southeast 528 608 35,000  Level FlightAware
06:44AM -20.4890 -48.6730 144° Southeast 527 606 35,000  Level FlightAware
06:45AM -20.5560 -48.6200 143° Southeast 528 608 35,000  Level FlightAware
06:45AM -20.6270 -48.5650 144° Southeast 528 608 35,000 -300 Level FlightAware
06:46AM -20.6940 -48.5120 144° Southeast 531 611 34,700 -1,500 Descending FlightAware
06:46AM -20.7650 -48.4560 144° Southeast 545 627 33,300 -2,460 Descending FlightAware
06:47AM -20.8400 -48.3980 144° Southeast 559 643 31,800 -2,340 Descending FlightAware
06:48AM -20.9160 -48.3370 143° Southeast 566 651 30,500 -1,680 Descending FlightAware
06:48AM -20.9870 -48.2810 144° Southeast 559 643 29,900 -1,260 Descending FlightAware
06:49AM -21.0590 -48.2240 144° Southeast 556 640 29,100 -1,260 Descending FlightAware
06:49AM -21.1370 -48.1630 144° Southeast 551 634 28,400 -1,260 Descending FlightAware
06:50AM -21.2020 -48.1110 143° Southeast 547 629 27,700 -1,200 Descending FlightAware
06:51AM -21.2720 -48.0550 143° Southeast 541 623 27,100 -1,140 Descending FlightAware
06:51AM -21.3460 -47.9970 144° Southeast 538 619 26,400 -1,260 Descending FlightAware
06:52AM -21.4110 -47.9450 143° Southeast 534 615 25,700 -1,080 Descending FlightAware
06:52AM -21.4830 -47.8890 144° Southeast 528 608 25,200 -960 Descending FlightAware
06:53AM -21.5530 -47.8330 143° Southeast 522 601 24,600 -1,020 Descending FlightAware
06:53AM -21.6230 -47.7770 143° Southeast 517 595 24,000 -1,020 Descending FlightAware
06:54AM -21.6830 -47.7290 143° Southeast 513 590 23,500 -900 Descending FlightAware
06:55AM -21.7510 -47.6750 144° Southeast 505 581 23,000 -840 Descending FlightAware
06:55AM -21.8230 -47.6170 143° Southeast 499 574 22,500 -900 Descending FlightAware
06:56AM -21.8820 -47.5700 144° Southeast 494 568 22,000 -1,020 Descending FlightAware
06:56AM -21.9470 -47.5170 143° Southeast 490 564 21,400 -840 Descending FlightAware
06:57AM -22.0010 -47.4740 144° Southeast 483 556 21,100 -780 Descending FlightAware
06:58AM -22.0740 -47.4160 144° Southeast 476 548 20,500 -780 Descending FlightAware
06:58AM -22.1310 -47.3690 143° Southeast 469 540 20,200 -480 Descending FlightAware
06:59AM -22.1930 -47.3200 144° Southeast 463 533 20,000 -180 Descending FlightAware
06:59AM -22.2590 -47.2660 143° Southeast 465 535 20,000  Level FlightAware
07:00AM -22.3130 -47.2230 144° Southeast 466 536 20,000 -180 Level FlightAware
07:00AM -22.3740 -47.1740 143° Southeast 464 534 19,800 -660 Descending FlightAware
07:01AM -22.4230 -47.1340 143° Southeast 460 529 19,300 -900 Descending FlightAware
07:02AM -22.4920 -47.0790 144° Southeast 445 512 18,800 -780 Descending FlightAware
07:02AM -22.5590 -47.0260 144° Southeast 439 505 18,300 -900 Descending FlightAware
07:03AM -22.6190 -46.9880 150° Southeast 421 484 17,700 -1,380 Descending FlightAware
07:04AM -22.6880 -46.9490 152° Southeast 417 480 16,600 -1,800 Descending FlightAware
07:04AM -22.7390 -46.9200 152° Southeast 403 464 15,600 -1,680 Descending FlightAware
07:05AM -22.7980 -46.8860 152° Southeast 388 447 14,800 -1,500 Descending FlightAware
07:05AM -22.8550 -46.8550 153° Southeast 384 442 13,900 -1,500 Descending FlightAware
07:06AM -22.9180 -46.8200 153° Southeast 364 419 12,900 -1,440 Descending FlightAware
07:06AM -22.9670 -46.7920 152° Southeast 347 399 12,100 -1,440 Descending FlightAware
07:07AM -23.0090 -46.7680 152° Southeast 326 375 11,400 -1,320 Descending FlightAware
07:08AM -23.0540 -46.7430 153° Southeast 304 350 10,700 -1,140 Descending FlightAware
07:08AM -23.0970 -46.7190 153° Southeast 291 335 10,100 -1,020 Descending FlightAware
07:08AM -23.1210 -46.7060 154° Southeast 288 331 9,800 -960 Descending FlightAware
07:09AM -23.1560 -46.6830 149° Southeast 301 346 9,300 -900 Descending FlightAware
07:09AM -23.1660 -46.6710 132° Southeast 311 358 9,200 -900 Descending FlightAware
07:09AM -23.1730 -46.6570 119° Southeast 320 368 9,000 -960 Descending FlightAware
07:10AM -23.1830 -46.6280 111° Southeast 318 366 8,700 -900 Descending FlightAware
07:10AM -23.1930 -46.5980 110° East 314 361 8,400 -960 Descending FlightAware
07:10AM -23.2040 -46.5670 111° Southeast 309 356 8,100 -600 Descending FlightAware
07:11AM -23.2130 -46.5390 109° East 297 342 8,000 -300 Descending FlightAware
07:11AM -23.2220 -46.5120 110° East 296 341 7,900 -480 Descending FlightAware
07:11AM -23.2290 -46.4910 110° East 290 334 7,700 -1,020 Descending FlightAware
07:12AM -23.2410 -46.4580 112° Southeast 265 305 7,200 -1,500 Descending FlightAware
07:12AM -23.2510 -46.4280 110° East 254 292 6,600 -1,440 Descending FlightAware
07:12AM -23.2600 -46.4030 111° Southeast 255 293 6,200 -1,080 Descending FlightAware
07:13AM -23.2680 -46.3790 110° East 249 287 5,900 -600 Descending FlightAware
07:13AM -23.2760 -46.3570 112° Southeast 244 281 5,800  Descending FlightAware
07:13AM -23.2860 -46.3270 110° East 244 281 5,900 -180 Climbing FlightAware
07:14AM -23.2940 -46.3040 111° Southeast 235 270 5,700 -600 Descending FlightAware
07:14AM -23.3010 -46.2820 109° East 227 261 5,500 -720 Descending FlightAware
07:14AM -23.3070 -46.2670 114° Southeast 211 243 5,300 -720 Descending FlightAware
07:15AM -23.3130 -46.2590 129° Southeast 209 241 5,200 -780 Descending FlightAware
07:15AM -23.3170 -46.2560 145° Southeast 199 229 5,100 -840 Descending FlightAware
07:15AM -23.3260 -46.2520 158° South 200 230 5,000 -900 Descending FlightAware
07:15AM -23.3350 -46.2510 174° South 195 224 4,800 -840 Descending FlightAware
07:15AM -23.3510 -46.2580 202° Southwest 182 209 4,600 -360 Descending FlightAware
07:16AM -23.3640 -46.2690 218° Southwest 185 213 4,600  Level FlightAware
07:16AM -23.3770 -46.2800 218° Southwest 177 204 4,600 120 Level FlightAware
07:16AM -23.3850 -46.2910 232° Southwest 174 200 4,700 300 Climbing FlightAware
07:16AM -23.3860 -46.2960 258° West 172 198 4,700 -300 Level FlightAware
07:17AM -23.3900 -46.3080 250° West 169 194 4,600  Descending FlightAware
07:17AM -23.3950 -46.3260 253° West 145 167 4,700  Climbing FlightAware
07:17AM -23.3980 -46.3370 253° West 146 168 4,600 -780 Descending FlightAware
07:18AM -23.4030 -46.3550 253° West 148 170 4,200 -900 Descending FlightAware
07:18AM -23.4060 -46.3640 250° West 142 163 4,000 -420 Descending FlightAware
07:18AM -23.4110 -46.3860 256° West 141 162 3,900 -720 Descending FlightAware
07:19AM -23.4140 -46.3970 253° West 149 171 3,500 -1,260 Descending FlightAware
07:19AM -23.4190 -46.4120 250° West 148 170 3,200 -840 Descending FlightAware
07:19AM -23.4230 -46.4280 255° West 148 170 2,900 -780 Descending FlightAware
07:20AM -23.4260 -46.4410 256° West 146 168 2,700 -720 Descending FlightAware
07:20AM -23.4310 -46.4570 251° West 143 165 2,400 -360 Descending FlightAware
07:21AM -23.4340 -46.4740 259° West 143 165 2,400  Level FlightAware